ePrivacy and GPDR Cookie Consent by Cookie Consent
EmailTwitter


Surface observations / France / LFBO (07630)

Regions: Quebec | Canada | USA | Europe | France | UK | Elsewhere
Station
Display
Info & Location for LFBO (07630) | Help decoding METAR

Weather Conditions observed on 2022/06/25 at 02:00 UTC at TOULOUSE/BLAGNAC, FR (LFBO)

Temperature: 18.0 Celsius.

Dewpoint: 14.0 Celsius.

Relative Humidity: 77%

Winds: Southeast at 6 km/h or 3 knots.

Mean Sea level Pressure: 101.30 kilopascals.

Coded METAR:

LFBO 250200Z AUTO 12003KT CAVOK 18/14 Q1013 TEMPO RA BKN012 BKN025=